Aktualne dane pomiarowe

Uwaga, wersja testowa! Automatyczne pobieranie danych za pomocą narzędzi lub skryptów to umożliwiających jest zabronione.

Dane meteo z obszaru Polski uzyskane na podstawie depesz SYNOP pobieranych co godzinę z NWS. Najedź myszką na symbol przedstawiony w tabeli, aby uzyskać informacje co do jego znaczenia. Prosimy pamiętać, że to testowa wersja strony, która jeszcze nie jest ukończona. Stworzono również jest krótki FAQ dotyczący korzystania z tej podstrony Anomalie temperatury w chwili obecnej odniesione są do okresu referencyjnego 1951-2016. Okres ten będzie później zmieniony na 1981-2010. Kliknij ikonę aby pobrać plik CSV. Kliknij ikonę aby wygenerować mapę synoptyczną dla danego terminu.

Wybierz Datę:    

        

Śnieżka (12510)

Dane terminowe dla wybranej stacji. Kliknij datę, aby otrzymać dane z tego terminu dla wszystkich stacji.

TemperaturaZachmurzenieWiatrCiśnienieOpadyPogoda
 Data t td wb tx tn tg rh  Nt Nl Cl Cm Ch ws wd g1 g2 wx mslp ppp ch 24h 12h t ww ww w1 w2  
2019-06-17 23:00:00 9.3 5.8 7.1--- 7950.0wx-wx12wx---- 842.7 -0.9---------
2019-06-17 22:00:00 9.3 6.2 7.3--- 8150.0wx-wx9wx---- 843.4 -0.2---------
2019-06-17 21:00:00 9.2 6.3 7.4--- 8250.0wx-wx8wx---- 843.6 0.0---------
2019-06-17 20:00:00 9.4 7.5 8.1--- 8850.0wx-wx8wx---- 843.6 -0.3---------
2019-06-17 19:00:00 9.5 7.8 8.3--- 8950.0wx-wx7wx---- 843.6 -0.6---------
2019-06-17 18:00:00 10.3 7.9 8.7 11.9 7.0- 8550.0wxwxwxwx7wx---- 843.6 -1.0- 0.012------
2019-06-17 17:00:00 11.3 7.6 9.0--- 7850.0wxwxwxwx8wx---- 843.9 -0.8---------
2019-06-17 16:00:00 11.3 8.0 9.2--- 8050.0wxwxwxwx7wx---- 844.2 -0.8---------
2019-06-17 15:00:00 11.4 7.7 9.1--- 7850.0wxwxwxwx6wx---- 844.6 -0.3---------
2019-06-17 14:00:00 10.8 7.8 8.9--- 8250.0wxwxwxwx6wx---- 844.7 -0.4---------
2019-06-17 13:00:00 10.6 8.4 9.1--- 8650.0wxwxwx6wx---- 845.0 0.3---------
2019-06-17 12:00:00 9.9 7.5 8.3--- 8550.0wxwxwxwx7wx---- 844.9 0.3- 0.06wx-w1--
2019-06-17 11:00:00 9.0 7.8 8.2--- 9250.0wxwxwxwx5wx---- 845.1 1.0---------
2019-06-17 10:00:00 8.5 7.4 7.7--- 9350.0wxwxwxwx8wx---- 844.7 0.4---------
2019-06-17 09:00:00 8.1 5.4 6.4--- 8340.0wxwxwxwx7wx---- 844.6 0.5---wx---
2019-06-17 08:00:00 7.7 7.6 7.6--- 990.9wxwxwxwxwx8wx---- 844.1 0.1---wx-w1w2--
2019-06-17 07:00:00 7.2 7.2 7.1--- 1000.6wxwxwx9wx---- 844.3 0.5---wx-w1w2--
2019-06-17 06:00:00 7.3 7.0 7.0 8.3 6.4- 980.9wxwxwxwxwx8wx---- 844.1 0.5 9.7 0.012wx-w1w2- 3.3
2019-06-17 05:00:00 7.4 7.4 7.3--- 1000.9wxwxwxwxwx7wx---- 844.0 0.4---wx-w1w2--
2019-06-17 04:00:00 6.7 6.7 6.6--- 1000.9wxwxwxwxwx7wx---- 843.8 0.5---wx-w1w2--
2019-06-17 03:00:00 6.9 6.9 6.8--- 1000.9wxwxwxwxwx7wx---- 843.6 0.2---wx-w1w2--
2019-06-17 02:00:00 7.1 7.1 7.0--- 1000.1wx-8wx---- 843.6 -0.1---wx-w1w2--
2019-06-17 01:00:00 7.0 7.0 6.9--- 1000.1wx-8wx---- 843.3 -0.7---wx-w1w2--
2019-06-17 00:00:00 6.4 6.4 6.3--- 1000.1wx-8wx---- 843.4 0.1- 0.06wx-w1w2--
2019-06-16 23:00:00 7.4 7.4 7.3--- 1000.1wx-8wx---- 843.7 0.9---wx-w1w2--
2019-06-16 22:00:00 7.5 7.5 7.4--- 1000.1wx-9wx---- 844.0 0.9---wx-w1w2--
2019-06-16 21:00:00 8.0 8.0 7.9--- 1000.1wx-9wx---- 843.3 0.7---wx-w1w2--
2019-06-16 20:00:00 8.1 8.1 8.0--- 1000.1wx-9wx---- 842.8 0.5---wx-w1w2--
2019-06-16 19:00:00 8.0 8.0 7.9--- 1000.1wx-7wx---- 843.1 1.3---wx-w1w2--
2019-06-16 18:00:00 8.1 8.1 8.0 9.9 6.7- 1000.1wxwxwx9wx---- 842.6 0.1- 10.012wx-w1w2--
2019-06-16 17:00:00 8.3 1.9 4.8--- 6450.0wxwxwxwxwx9wx---- 842.3 -0.4---------
2019-06-16 16:00:00 8.2 2.6 5.1--- 6850.0wxwxwxwxwx9wx---- 841.8 -0.9---------
2019-06-16 15:00:00 7.7 2.2 4.7--- 6850.0wxwxwxwx5wx---- 842.5 0.2---wx-w1w2--
2019-06-16 14:00:00 7.0 5.1 5.8--- 8812.0wxwxwx4wx---- 842.7 0.3---wx-w1w2--
2019-06-16 13:00:00 7.4 4.4 5.5--- 8112.0wxwxwx5wx---- 842.7 0.7---wx---
2019-06-16 12:00:00 8.3 6.1 6.9--- 8650.0wxwxwx5wx---- 842.3 0.4- 0.96wx-w1w2--
2019-06-16 11:00:00 8.3 5.4 6.5--- 8250.0wxwxwx6wx---- 842.4 0.8---------
2019-06-16 10:00:00 7.6 7.5 7.5--- 9950.0wxwxwx5wx---- 842.0 0.9---wx---
2019-06-16 09:00:00 8.4 8.4 8.3--- 1000.9wxwxwx7wx---- 841.9 1.4---wx-w1w2--
2019-06-16 08:00:00 8.6 8.6 8.5--- 10050.0wxwxwx2wx---- 841.6 1.6---wx---
2019-06-16 07:00:00 9.1 9.1 9.0--- 1000.9wxwxwx4wx---- 841.1 1.6---wx-w1w2--
2019-06-16 06:00:00 9.2 9.2 9.1 15.7 9.0- 1000.1wx-6wx---- 840.5 1.4 5.9 6.012wx-w1w2- 7.5
2019-06-16 05:00:00 9.5 9.5 9.4--- 1000.1wx-7wx---- 840.0 0.9---wx-w1w2--
2019-06-16 04:00:00 9.7 9.7 9.6--- 1000.1wx-8wx---- 839.5 0.0---wx-w1w2--
2019-06-16 03:00:00 10.0 10.0 9.9--- 1000.1wx-10wx---- 839.1 -1.1---wx-w1w2--
2019-06-16 02:00:00 10.0 10.0 9.9--- 1000.1wx-10wx---- 839.1 -1.3---wx-w1w2--
2019-06-16 01:00:00 10.7 10.7 10.6--- 1000.1wx-11wx---- 839.5 0.1---wx-w1w2--
2019-06-16 00:00:00 11.4 10.9 11.0--- 970.9wxwxwx9wx---- 840.2 1.1- 4.06wx-w1w2--
1.8 ms

 

Print Friendly, PDF & Email